sensor_id;sensor_type;location;lat;lon;timestamp;temperature;humidity
39067;DHT22;24821;51.988;6.020;2023-05-07T00:02:21;16.50;99.90
39067;DHT22;24821;51.988;6.020;2023-05-07T00:04:48;16.50;99.90
39067;DHT22;24821;51.988;6.020;2023-05-07T00:07:14;16.50;99.90
39067;DHT22;24821;51.988;6.020;2023-05-07T00:09:40;16.50;99.90
39067;DHT22;24821;51.988;6.020;2023-05-07T00:12:06;16.40;99.90
39067;DHT22;24821;51.988;6.020;2023-05-07T00:14:31;16.40;99.90
39067;DHT22;24821;51.988;6.020;2023-05-07T00:16:57;16.40;99.90
39067;DHT22;24821;51.988;6.020;2023-05-07T00:19:22;16.50;99.90
39067;DHT22;24821;51.988;6.020;2023-05-07T00:21:48;16.40;99.90
39067;DHT22;24821;51.988;6.020;2023-05-07T00:24:14;16.40;99.90
39067;DHT22;24821;51.988;6.020;2023-05-07T00:26:39;16.30;99.90
39067;DHT22;24821;51.988;6.020;2023-05-07T00:29:05;16.30;99.90
39067;DHT22;24821;51.988;6.020;2023-05-07T00:31:30;16.30;99.90
39067;DHT22;24821;51.988;6.020;2023-05-07T00:33:56;16.30;99.90
39067;DHT22;24821;51.988;6.020;2023-05-07T00:36:21;16.20;99.90
39067;DHT22;24821;51.988;6.020;2023-05-07T00:38:47;16.20;99.90
39067;DHT22;24821;51.988;6.020;2023-05-07T00:41:12;16.20;99.90
39067;DHT22;24821;51.988;6.020;2023-05-07T00:43:38;16.20;99.90
39067;DHT22;24821;51.988;6.020;2023-05-07T00:46:03;16.10;99.90
39067;DHT22;24821;51.988;6.020;2023-05-07T00:48:30;16.10;99.90
39067;DHT22;24821;51.988;6.020;2023-05-07T00:50:56;16.10;99.90
39067;DHT22;24821;51.988;6.020;2023-05-07T00:53:22;16.10;99.90
39067;DHT22;24821;51.988;6.020;2023-05-07T00:55:48;16.10;99.90
39067;DHT22;24821;51.988;6.020;2023-05-07T00:58:13;16.00;99.90
39067;DHT22;24821;51.988;6.020;2023-05-07T01:00:39;16.00;99.90
39067;DHT22;24821;51.988;6.020;2023-05-07T01:03:05;16.00;99.90
39067;DHT22;24821;51.988;6.020;2023-05-07T01:05:31;15.90;99.90
39067;DHT22;24821;51.988;6.020;2023-05-07T01:07:57;15.90;99.90
39067;DHT22;24821;51.988;6.020;2023-05-07T01:10:23;15.90;99.90
39067;DHT22;24821;51.988;6.020;2023-05-07T01:12:50;15.80;99.90
39067;DHT22;24821;51.988;6.020;2023-05-07T01:15:16;15.70;99.90
39067;DHT22;24821;51.988;6.020;2023-05-07T01:17:43;15.70;99.90
39067;DHT22;24821;51.988;6.020;2023-05-07T01:20:09;15.60;99.90
39067;DHT22;24821;51.988;6.020;2023-05-07T01:22:38;15.60;99.90
39067;DHT22;24821;51.988;6.020;2023-05-07T01:25:05;15.50;99.90
39067;DHT22;24821;51.988;6.020;2023-05-07T01:27:31;15.50;99.90
39067;DHT22;24821;51.988;6.020;2023-05-07T01:29:58;15.50;99.90
39067;DHT22;24821;51.988;6.020;2023-05-07T01:32:32;15.50;99.90
39067;DHT22;24821;51.988;6.020;2023-05-07T01:35:00;15.50;99.90
39067;DHT22;24821;51.988;6.020;2023-05-07T01:37:26;15.60;99.90
39067;DHT22;24821;51.988;6.020;2023-05-07T01:39:52;15.60;99.90
39067;DHT22;24821;51.988;6.020;2023-05-07T01:42:19;15.60;99.90
39067;DHT22;24821;51.988;6.020;2023-05-07T01:44:45;15.60;99.90
39067;DHT22;24821;51.988;6.020;2023-05-07T01:47:12;15.50;99.90
39067;DHT22;24821;51.988;6.020;2023-05-07T01:49:38;15.40;99.90
39067;DHT22;24821;51.988;6.020;2023-05-07T01:52:03;15.50;99.90
39067;DHT22;24821;51.988;6.020;2023-05-07T01:54:29;15.40;99.90
39067;DHT22;24821;51.988;6.020;2023-05-07T01:56:56;15.40;99.90
39067;DHT22;24821;51.988;6.020;2023-05-07T01:59:22;15.50;99.90
39067;DHT22;24821;51.988;6.020;2023-05-07T02:01:48;15.50;99.90
39067;DHT22;24821;51.988;6.020;2023-05-07T02:04:13;15.50;99.90
39067;DHT22;24821;51.988;6.020;2023-05-07T02:06:39;15.50;99.90
39067;DHT22;24821;51.988;6.020;2023-05-07T02:09:04;15.50;99.90
39067;DHT22;24821;51.988;6.020;2023-05-07T02:11:30;15.50;99.90
39067;DHT22;24821;51.988;6.020;2023-05-07T02:13:56;15.50;99.90
39067;DHT22;24821;51.988;6.020;2023-05-07T02:16:21;15.50;99.90
39067;DHT22;24821;51.988;6.020;2023-05-07T02:18:48;15.50;99.90
39067;DHT22;24821;51.988;6.020;2023-05-07T02:21:14;15.50;99.90
39067;DHT22;24821;51.988;6.020;2023-05-07T02:23:39;15.50;99.90
39067;DHT22;24821;51.988;6.020;2023-05-07T02:26:05;15.50;99.90
39067;DHT22;24821;51.988;6.020;2023-05-07T02:28:30;15.50;99.90
39067;DHT22;24821;51.988;6.020;2023-05-07T02:30:56;15.50;99.90
39067;DHT22;24821;51.988;6.020;2023-05-07T02:33:23;15.50;99.90
39067;DHT22;24821;51.988;6.020;2023-05-07T02:35:49;15.50;99.90
39067;DHT22;24821;51.988;6.020;2023-05-07T02:38:15;15.50;99.90
39067;DHT22;24821;51.988;6.020;2023-05-07T02:40:40;15.50;99.90
39067;DHT22;24821;51.988;6.020;2023-05-07T02:43:06;15.50;99.90
39067;DHT22;24821;51.988;6.020;2023-05-07T02:45:32;15.40;99.90
39067;DHT22;24821;51.988;6.020;2023-05-07T02:47:58;15.40;99.90
39067;DHT22;24821;51.988;6.020;2023-05-07T02:50:23;15.40;99.90
39067;DHT22;24821;51.988;6.020;2023-05-07T02:52:49;15.40;99.90
39067;DHT22;24821;51.988;6.020;2023-05-07T02:55:15;15.40;99.90
39067;DHT22;24821;51.988;6.020;2023-05-07T02:57:41;15.40;99.90
39067;DHT22;24821;51.988;6.020;2023-05-07T03:00:16;15.40;99.90
39067;DHT22;24821;51.988;6.020;2023-05-07T03:02:43;15.40;99.90
39067;DHT22;24821;51.988;6.020;2023-05-07T03:05:09;15.40;99.90
39067;DHT22;24821;51.988;6.020;2023-05-07T03:07:35;15.40;99.90
39067;DHT22;24821;51.988;6.020;2023-05-07T03:10:02;15.40;99.90
39067;DHT22;24821;51.988;6.020;2023-05-07T03:12:27;15.40;99.90
39067;DHT22;24821;51.988;6.020;2023-05-07T03:14:53;15.40;99.90
39067;DHT22;24821;51.988;6.020;2023-05-07T03:17:18;15.40;99.90
39067;DHT22;24821;51.988;6.020;2023-05-07T03:19:44;15.40;99.90
39067;DHT22;24821;51.988;6.020;2023-05-07T03:22:09;15.40;99.90
39067;DHT22;24821;51.988;6.020;2023-05-07T03:24:35;15.50;99.90
39067;DHT22;24821;51.988;6.020;2023-05-07T03:27:00;15.50;99.90
39067;DHT22;24821;51.988;6.020;2023-05-07T03:29:26;15.50;99.90
39067;DHT22;24821;51.988;6.020;2023-05-07T03:31:52;15.40;99.90
39067;DHT22;24821;51.988;6.020;2023-05-07T03:34:17;15.40;99.90
39067;DHT22;24821;51.988;6.020;2023-05-07T03:36:50;15.40;99.90
39067;DHT22;24821;51.988;6.020;2023-05-07T03:39:16;15.40;99.90
39067;DHT22;24821;51.988;6.020;2023-05-07T03:41:41;15.40;99.90
39067;DHT22;24821;51.988;6.020;2023-05-07T03:44:07;15.40;99.90
39067;DHT22;24821;51.988;6.020;2023-05-07T03:46:33;15.40;99.90
39067;DHT22;24821;51.988;6.020;2023-05-07T03:48:59;15.40;99.90
39067;DHT22;24821;51.988;6.020;2023-05-07T03:51:25;15.40;99.90
39067;DHT22;24821;51.988;6.020;2023-05-07T03:53:51;15.40;99.90
39067;DHT22;24821;51.988;6.020;2023-05-07T03:56:18;15.30;99.90
39067;DHT22;24821;51.988;6.020;2023-05-07T03:58:44;15.30;99.90
39067;DHT22;24821;51.988;6.020;2023-05-07T04:01:10;15.30;99.90
39067;DHT22;24821;51.988;6.020;2023-05-07T04:03:36;15.30;99.90
39067;DHT22;24821;51.988;6.020;2023-05-07T04:06:02;15.30;99.90
39067;DHT22;24821;51.988;6.020;2023-05-07T04:08:28;15.30;99.90
39067;DHT22;24821;51.988;6.020;2023-05-07T04:10:57;15.40;99.90
39067;DHT22;24821;51.988;6.020;2023-05-07T04:13:23;15.30;99.90
39067;DHT22;24821;51.988;6.020;2023-05-07T04:15:48;15.40;99.90
39067;DHT22;24821;51.988;6.020;2023-05-07T04:18:14;15.30;99.90
39067;DHT22;24821;51.988;6.020;2023-05-07T04:20:40;15.40;99.90
39067;DHT22;24821;51.988;6.020;2023-05-07T04:23:06;15.40;99.90
39067;DHT22;24821;51.988;6.020;2023-05-07T04:25:32;15.40;99.90
39067;DHT22;24821;51.988;6.020;2023-05-07T04:27:58;15.40;99.90
39067;DHT22;24821;51.988;6.020;2023-05-07T04:30:24;15.40;99.90
39067;DHT22;24821;51.988;6.020;2023-05-07T04:32:50;15.40;99.90
39067;DHT22;24821;51.988;6.020;2023-05-07T04:35:16;15.40;99.90
39067;DHT22;24821;51.988;6.020;2023-05-07T04:37:42;15.40;99.90
39067;DHT22;24821;51.988;6.020;2023-05-07T04:40:07;15.50;99.90
39067;DHT22;24821;51.988;6.020;2023-05-07T04:42:33;15.50;99.90
39067;DHT22;24821;51.988;6.020;2023-05-07T04:44:58;15.50;99.90
39067;DHT22;24821;51.988;6.020;2023-05-07T04:47:24;15.50;99.90
39067;DHT22;24821;51.988;6.020;2023-05-07T04:49:49;15.50;99.90
39067;DHT22;24821;51.988;6.020;2023-05-07T04:52:15;15.50;99.90
39067;DHT22;24821;51.988;6.020;2023-05-07T04:54:42;15.50;99.90
39067;DHT22;24821;51.988;6.020;2023-05-07T04:57:07;15.60;99.90
39067;DHT22;24821;51.988;6.020;2023-05-07T04:59:33;15.60;99.90
39067;DHT22;24821;51.988;6.020;2023-05-07T05:01:58;15.50;99.90
39067;DHT22;24821;51.988;6.020;2023-05-07T05:04:24;15.50;99.90
39067;DHT22;24821;51.988;6.020;2023-05-07T05:06:50;15.50;99.90
39067;DHT22;24821;51.988;6.020;2023-05-07T05:09:15;15.50;99.90
39067;DHT22;24821;51.988;6.020;2023-05-07T05:11:41;15.50;99.90
39067;DHT22;24821;51.988;6.020;2023-05-07T05:14:07;15.60;99.90
39067;DHT22;24821;51.988;6.020;2023-05-07T05:16:32;15.60;99.90
39067;DHT22;24821;51.988;6.020;2023-05-07T05:18:58;15.60;99.90
39067;DHT22;24821;51.988;6.020;2023-05-07T05:21:24;15.60;99.90
39067;DHT22;24821;51.988;6.020;2023-05-07T05:23:50;15.60;99.90
39067;DHT22;24821;51.988;6.020;2023-05-07T05:26:15;15.60;99.90
39067;DHT22;24821;51.988;6.020;2023-05-07T05:28:41;15.70;99.90
39067;DHT22;24821;51.988;6.020;2023-05-07T05:31:06;15.70;99.90
39067;DHT22;24821;51.988;6.020;2023-05-07T05:33:32;15.80;99.90
39067;DHT22;24821;51.988;6.020;2023-05-07T05:35:58;15.80;99.90
39067;DHT22;24821;51.988;6.020;2023-05-07T05:38:23;15.90;99.90
39067;DHT22;24821;51.988;6.020;2023-05-07T05:40:49;15.90;99.90
39067;DHT22;24821;51.988;6.020;2023-05-07T05:43:14;15.90;99.90
39067;DHT22;24821;51.988;6.020;2023-05-07T05:45:40;15.90;99.90
39067;DHT22;24821;51.988;6.020;2023-05-07T05:48:06;16.00;99.90
39067;DHT22;24821;51.988;6.020;2023-05-07T05:50:31;15.90;99.90
39067;DHT22;24821;51.988;6.020;2023-05-07T05:52:57;16.00;99.90
39067;DHT22;24821;51.988;6.020;2023-05-07T05:55:23;16.10;99.90
39067;DHT22;24821;51.988;6.020;2023-05-07T05:57:49;16.00;99.90
39067;DHT22;24821;51.988;6.020;2023-05-07T06:00:16;16.10;99.90
39067;DHT22;24821;51.988;6.020;2023-05-07T06:02:41;16.10;99.90
39067;DHT22;24821;51.988;6.020;2023-05-07T06:05:08;16.10;99.90
39067;DHT22;24821;51.988;6.020;2023-05-07T06:07:34;16.10;99.90
39067;DHT22;24821;51.988;6.020;2023-05-07T06:10:00;16.10;99.90
39067;DHT22;24821;51.988;6.020;2023-05-07T06:12:26;16.20;99.90
39067;DHT22;24821;51.988;6.020;2023-05-07T06:14:52;16.20;99.90
39067;DHT22;24821;51.988;6.020;2023-05-07T06:17:17;16.20;99.90
39067;DHT22;24821;51.988;6.020;2023-05-07T06:19:43;16.20;99.90
39067;DHT22;24821;51.988;6.020;2023-05-07T06:22:09;16.20;99.90
39067;DHT22;24821;51.988;6.020;2023-05-07T06:24:35;16.20;99.90
39067;DHT22;24821;51.988;6.020;2023-05-07T06:27:00;16.20;99.90
39067;DHT22;24821;51.988;6.020;2023-05-07T06:29:26;16.20;99.90
39067;DHT22;24821;51.988;6.020;2023-05-07T06:31:52;16.20;99.90
39067;DHT22;24821;51.988;6.020;2023-05-07T06:34:18;16.20;99.90
39067;DHT22;24821;51.988;6.020;2023-05-07T06:36:43;16.10;99.90
39067;DHT22;24821;51.988;6.020;2023-05-07T06:39:09;16.20;99.90
39067;DHT22;24821;51.988;6.020;2023-05-07T06:41:35;16.20;99.90
39067;DHT22;24821;51.988;6.020;2023-05-07T06:44:02;16.20;99.90
39067;DHT22;24821;51.988;6.020;2023-05-07T06:46:28;16.20;99.90
39067;DHT22;24821;51.988;6.020;2023-05-07T06:48:54;16.20;99.90
39067;DHT22;24821;51.988;6.020;2023-05-07T06:51:19;16.20;99.90
39067;DHT22;24821;51.988;6.020;2023-05-07T06:53:45;16.30;99.90
39067;DHT22;24821;51.988;6.020;2023-05-07T06:56:10;16.30;99.90
39067;DHT22;24821;51.988;6.020;2023-05-07T06:58:37;16.40;99.90
39067;DHT22;24821;51.988;6.020;2023-05-07T07:01:03;16.40;99.90
39067;DHT22;24821;51.988;6.020;2023-05-07T07:03:28;16.50;99.90
39067;DHT22;24821;51.988;6.020;2023-05-07T07:05:54;16.50;99.90
39067;DHT22;24821;51.988;6.020;2023-05-07T07:08:20;16.50;99.90
39067;DHT22;24821;51.988;6.020;2023-05-07T07:10:47;16.60;99.90
39067;DHT22;24821;51.988;6.020;2023-05-07T07:13:13;16.60;99.90
39067;DHT22;24821;51.988;6.020;2023-05-07T07:15:38;16.70;99.90
39067;DHT22;24821;51.988;6.020;2023-05-07T07:18:04;16.60;99.90
39067;DHT22;24821;51.988;6.020;2023-05-07T07:20:30;16.80;99.90
39067;DHT22;24821;51.988;6.020;2023-05-07T07:22:55;16.80;99.90
39067;DHT22;24821;51.988;6.020;2023-05-07T07:25:21;16.90;99.90
39067;DHT22;24821;51.988;6.020;2023-05-07T07:27:46;17.00;99.90
39067;DHT22;24821;51.988;6.020;2023-05-07T07:30:12;17.00;99.90
39067;DHT22;24821;51.988;6.020;2023-05-07T07:32:38;17.10;99.90
39067;DHT22;24821;51.988;6.020;2023-05-07T07:35:03;17.20;99.90
39067;DHT22;24821;51.988;6.020;2023-05-07T07:37:30;17.20;99.90
39067;DHT22;24821;51.988;6.020;2023-05-07T07:39:55;17.20;99.90
39067;DHT22;24821;51.988;6.020;2023-05-07T07:42:21;17.30;99.90
39067;DHT22;24821;51.988;6.020;2023-05-07T07:44:47;17.40;99.90
39067;DHT22;24821;51.988;6.020;2023-05-07T07:47:13;17.40;99.90
39067;DHT22;24821;51.988;6.020;2023-05-07T07:49:39;17.40;99.90
39067;DHT22;24821;51.988;6.020;2023-05-07T07:52:04;17.50;99.90
39067;DHT22;24821;51.988;6.020;2023-05-07T07:54:30;17.50;99.90
39067;DHT22;24821;51.988;6.020;2023-05-07T07:56:55;17.50;99.90
39067;DHT22;24821;51.988;6.020;2023-05-07T07:59:21;17.60;99.90
39067;DHT22;24821;51.988;6.020;2023-05-07T08:01:47;17.60;99.90
39067;DHT22;24821;51.988;6.020;2023-05-07T08:04:15;17.70;99.90
39067;DHT22;24821;51.988;6.020;2023-05-07T08:06:41;17.70;99.90
39067;DHT22;24821;51.988;6.020;2023-05-07T08:09:07;17.80;99.90
39067;DHT22;24821;51.988;6.020;2023-05-07T08:11:33;17.80;99.90
39067;DHT22;24821;51.988;6.020;2023-05-07T08:13:59;17.80;99.90
39067;DHT22;24821;51.988;6.020;2023-05-07T08:16:24;17.80;99.90
39067;DHT22;24821;51.988;6.020;2023-05-07T08:18:50;17.90;99.90
39067;DHT22;24821;51.988;6.020;2023-05-07T08:21:16;18.00;99.90
39067;DHT22;24821;51.988;6.020;2023-05-07T08:23:41;18.10;99.90
39067;DHT22;24821;51.988;6.020;2023-05-07T08:26:08;18.10;99.90
39067;DHT22;24821;51.988;6.020;2023-05-07T08:28:33;18.20;99.90
39067;DHT22;24821;51.988;6.020;2023-05-07T08:30:59;18.20;99.90
39067;DHT22;24821;51.988;6.020;2023-05-07T08:33:26;18.20;99.90
39067;DHT22;24821;51.988;6.020;2023-05-07T08:35:52;18.20;99.90
39067;DHT22;24821;51.988;6.020;2023-05-07T08:38:17;18.30;99.90
39067;DHT22;24821;51.988;6.020;2023-05-07T08:40:43;18.30;99.90
39067;DHT22;24821;51.988;6.020;2023-05-07T08:43:14;18.30;99.90
39067;DHT22;24821;51.988;6.020;2023-05-07T08:45:43;18.40;99.90
39067;DHT22;24821;51.988;6.020;2023-05-07T08:48:19;18.40;99.90
39067;DHT22;24821;51.988;6.020;2023-05-07T08:50:47;18.50;99.90
39067;DHT22;24821;51.988;6.020;2023-05-07T08:53:12;18.50;99.90
39067;DHT22;24821;51.988;6.020;2023-05-07T08:55:38;18.60;99.90
39067;DHT22;24821;51.988;6.020;2023-05-07T08:58:04;18.60;99.90
39067;DHT22;24821;51.988;6.020;2023-05-07T09:00:30;18.70;99.90
39067;DHT22;24821;51.988;6.020;2023-05-07T09:02:56;18.70;99.90
39067;DHT22;24821;51.988;6.020;2023-05-07T09:05:21;18.70;99.90
39067;DHT22;24821;51.988;6.020;2023-05-07T09:07:47;18.80;99.90
39067;DHT22;24821;51.988;6.020;2023-05-07T09:10:13;18.90;99.90
39067;DHT22;24821;51.988;6.020;2023-05-07T09:12:39;19.00;99.90
39067;DHT22;24821;51.988;6.020;2023-05-07T09:15:05;19.10;99.90
39067;DHT22;24821;51.988;6.020;2023-05-07T09:17:31;19.20;99.90
39067;DHT22;24821;51.988;6.020;2023-05-07T09:20:02;19.40;99.90
39067;DHT22;24821;51.988;6.020;2023-05-07T09:22:32;19.40;99.90
39067;DHT22;24821;51.988;6.020;2023-05-07T09:24:58;19.50;99.90
39067;DHT22;24821;51.988;6.020;2023-05-07T09:27:24;19.60;99.90
39067;DHT22;24821;51.988;6.020;2023-05-07T09:29:51;19.60;99.90
39067;DHT22;24821;51.988;6.020;2023-05-07T09:32:16;19.80;99.90
39067;DHT22;24821;51.988;6.020;2023-05-07T09:34:42;19.90;99.90
39067;DHT22;24821;51.988;6.020;2023-05-07T09:37:08;20.00;99.90
39067;DHT22;24821;51.988;6.020;2023-05-07T09:39:47;20.20;99.90
39067;DHT22;24821;51.988;6.020;2023-05-07T09:42:13;20.60;99.90
39067;DHT22;24821;51.988;6.020;2023-05-07T09:44:43;20.90;99.90
39067;DHT22;24821;51.988;6.020;2023-05-07T09:47:10;21.20;99.90
39067;DHT22;24821;51.988;6.020;2023-05-07T09:49:39;21.60;99.90
39067;DHT22;24821;51.988;6.020;2023-05-07T09:52:06;21.70;99.90
39067;DHT22;24821;51.988;6.020;2023-05-07T09:54:34;21.90;99.90
39067;DHT22;24821;51.988;6.020;2023-05-07T09:57:05;21.80;99.90
39067;DHT22;24821;51.988;6.020;2023-05-07T09:59:32;21.80;99.90
39067;DHT22;24821;51.988;6.020;2023-05-07T10:01:59;21.80;99.90
39067;DHT22;24821;51.988;6.020;2023-05-07T10:04:26;21.90;99.90
39067;DHT22;24821;51.988;6.020;2023-05-07T10:06:52;22.00;99.90
39067;DHT22;24821;51.988;6.020;2023-05-07T10:09:21;22.00;99.90
39067;DHT22;24821;51.988;6.020;2023-05-07T10:11:48;22.00;99.90
39067;DHT22;24821;51.988;6.020;2023-05-07T10:14:14;22.00;99.90
39067;DHT22;24821;51.988;6.020;2023-05-07T10:16:41;22.00;99.90
39067;DHT22;24821;51.988;6.020;2023-05-07T10:19:07;21.90;99.90
39067;DHT22;24821;51.988;6.020;2023-05-07T10:21:36;21.80;99.90
39067;DHT22;24821;51.988;6.020;2023-05-07T10:24:09;21.80;99.90
39067;DHT22;24821;51.988;6.020;2023-05-07T10:26:41;21.80;99.90
39067;DHT22;24821;51.988;6.020;2023-05-07T10:29:12;21.90;99.90
39067;DHT22;24821;51.988;6.020;2023-05-07T10:32:05;22.00;99.90
39067;DHT22;24821;51.988;6.020;2023-05-07T10:34:39;22.00;99.90
39067;DHT22;24821;51.988;6.020;2023-05-07T10:37:06;22.10;99.90
39067;DHT22;24821;51.988;6.020;2023-05-07T10:39:32;22.40;99.90
39067;DHT22;24821;51.988;6.020;2023-05-07T10:42:10;22.70;99.90
39067;DHT22;24821;51.988;6.020;2023-05-07T10:44:36;22.90;99.90
39067;DHT22;24821;51.988;6.020;2023-05-07T10:47:13;23.00;99.90
39067;DHT22;24821;51.988;6.020;2023-05-07T10:52:20;22.90;99.90
39067;DHT22;24821;51.988;6.020;2023-05-07T10:54:46;22.80;99.90
39067;DHT22;24821;51.988;6.020;2023-05-07T10:57:36;22.60;99.90
39067;DHT22;24821;51.988;6.020;2023-05-07T11:00:03;22.50;99.90
39067;DHT22;24821;51.988;6.020;2023-05-07T11:05:30;22.50;99.90
39067;DHT22;24821;51.988;6.020;2023-05-07T11:08:02;22.60;99.90
39067;DHT22;24821;51.988;6.020;2023-05-07T11:10:47;22.80;99.90
39067;DHT22;24821;51.988;6.020;2023-05-07T11:13:14;23.00;99.90
39067;DHT22;24821;51.988;6.020;2023-05-07T11:15:42;23.00;99.90
39067;DHT22;24821;51.988;6.020;2023-05-07T11:18:08;22.90;99.90
39067;DHT22;24821;51.988;6.020;2023-05-07T11:20:50;22.90;99.90
39067;DHT22;24821;51.988;6.020;2023-05-07T11:26:08;22.90;99.90
39067;DHT22;24821;51.988;6.020;2023-05-07T11:28:40;22.80;99.90
39067;DHT22;24821;51.988;6.020;2023-05-07T11:31:06;22.70;99.90
39067;DHT22;24821;51.988;6.020;2023-05-07T11:33:32;22.60;99.90
39067;DHT22;24821;51.988;6.020;2023-05-07T11:35:59;22.50;99.90
39067;DHT22;24821;51.988;6.020;2023-05-07T11:38:25;22.50;99.90
39067;DHT22;24821;51.988;6.020;2023-05-07T11:40:52;22.50;99.90
39067;DHT22;24821;51.988;6.020;2023-05-07T11:43:18;22.50;99.90
39067;DHT22;24821;51.988;6.020;2023-05-07T11:45:47;22.50;99.90
39067;DHT22;24821;51.988;6.020;2023-05-07T11:48:13;22.50;99.90
39067;DHT22;24821;51.988;6.020;2023-05-07T11:53:27;22.60;99.90
39067;DHT22;24821;51.988;6.020;2023-05-07T11:55:56;22.60;99.90
39067;DHT22;24821;51.988;6.020;2023-05-07T11:58:23;22.80;99.90
39067;DHT22;24821;51.988;6.020;2023-05-07T12:00:53;22.90;99.90
39067;DHT22;24821;51.988;6.020;2023-05-07T12:03:20;23.00;99.90
39067;DHT22;24821;51.988;6.020;2023-05-07T12:05:48;23.10;99.90
39067;DHT22;24821;51.988;6.020;2023-05-07T12:08:15;23.20;99.80
39067;DHT22;24821;51.988;6.020;2023-05-07T12:10:45;23.20;99.40
39067;DHT22;24821;51.988;6.020;2023-05-07T12:13:49;23.30;98.90
39067;DHT22;24821;51.988;6.020;2023-05-07T12:16:28;23.40;99.10
39067;DHT22;24821;51.988;6.020;2023-05-07T12:19:06;23.40;98.90
39067;DHT22;24821;51.988;6.020;2023-05-07T12:21:33;23.40;98.70
39067;DHT22;24821;51.988;6.020;2023-05-07T12:24:14;23.30;98.60
39067;DHT22;24821;51.988;6.020;2023-05-07T12:26:40;23.20;99.00
39067;DHT22;24821;51.988;6.020;2023-05-07T12:29:09;23.20;99.20
39067;DHT22;24821;51.988;6.020;2023-05-07T12:32:19;23.10;98.70
39067;DHT22;24821;51.988;6.020;2023-05-07T12:34:46;23.10;98.50
39067;DHT22;24821;51.988;6.020;2023-05-07T12:37:14;23.00;99.10
39067;DHT22;24821;51.988;6.020;2023-05-07T12:40:06;22.90;98.70
39067;DHT22;24821;51.988;6.020;2023-05-07T12:42:39;22.80;99.00
39067;DHT22;24821;51.988;6.020;2023-05-07T12:45:12;22.70;99.10
39067;DHT22;24821;51.988;6.020;2023-05-07T12:47:38;22.70;99.10
39067;DHT22;24821;51.988;6.020;2023-05-07T12:50:07;22.60;99.10
39067;DHT22;24821;51.988;6.020;2023-05-07T12:52:33;22.60;99.40
39067;DHT22;24821;51.988;6.020;2023-05-07T12:55:05;22.60;99.20
39067;DHT22;24821;51.988;6.020;2023-05-07T12:57:41;22.50;99.50
39067;DHT22;24821;51.988;6.020;2023-05-07T13:00:07;22.50;99.80
39067;DHT22;24821;51.988;6.020;2023-05-07T13:02:38;22.40;99.90
39067;DHT22;24821;51.988;6.020;2023-05-07T13:05:05;22.30;99.90
39067;DHT22;24821;51.988;6.020;2023-05-07T13:07:31;22.30;99.90
39067;DHT22;24821;51.988;6.020;2023-05-07T13:09:57;22.20;99.90
39067;DHT22;24821;51.988;6.020;2023-05-07T13:12:22;22.10;99.90
39067;DHT22;24821;51.988;6.020;2023-05-07T13:14:48;22.10;99.90
39067;DHT22;24821;51.988;6.020;2023-05-07T13:17:13;22.00;99.90
39067;DHT22;24821;51.988;6.020;2023-05-07T13:19:39;21.90;99.90
39067;DHT22;24821;51.988;6.020;2023-05-07T13:22:04;21.70;99.90
39067;DHT22;24821;51.988;6.020;2023-05-07T13:24:30;21.50;99.90
39067;DHT22;24821;51.988;6.020;2023-05-07T13:26:55;21.30;99.90
39067;DHT22;24821;51.988;6.020;2023-05-07T13:29:21;21.20;99.90
39067;DHT22;24821;51.988;6.020;2023-05-07T13:31:58;21.10;99.90
39067;DHT22;24821;51.988;6.020;2023-05-07T13:34:24;21.10;99.90
39067;DHT22;24821;51.988;6.020;2023-05-07T13:36:49;21.20;99.90
39067;DHT22;24821;51.988;6.020;2023-05-07T13:39:15;21.20;99.90
39067;DHT22;24821;51.988;6.020;2023-05-07T13:41:41;21.20;99.90
39067;DHT22;24821;51.988;6.020;2023-05-07T13:44:07;21.20;99.90
39067;DHT22;24821;51.988;6.020;2023-05-07T13:46:32;21.30;99.90
39067;DHT22;24821;51.988;6.020;2023-05-07T13:48:58;21.40;99.90
39067;DHT22;24821;51.988;6.020;2023-05-07T13:51:24;21.40;99.90
39067;DHT22;24821;51.988;6.020;2023-05-07T13:53:49;21.50;99.90
39067;DHT22;24821;51.988;6.020;2023-05-07T13:56:15;21.60;99.90
39067;DHT22;24821;51.988;6.020;2023-05-07T13:58:41;21.70;99.90
39067;DHT22;24821;51.988;6.020;2023-05-07T14:01:06;21.70;99.90
39067;DHT22;24821;51.988;6.020;2023-05-07T14:03:32;22.00;99.90
39067;DHT22;24821;51.988;6.020;2023-05-07T14:05:59;22.30;99.90
39067;DHT22;24821;51.988;6.020;2023-05-07T14:08:26;22.50;99.90
39067;DHT22;24821;51.988;6.020;2023-05-07T14:10:52;22.60;99.90
39067;DHT22;24821;51.988;6.020;2023-05-07T14:13:18;22.60;99.90
39067;DHT22;24821;51.988;6.020;2023-05-07T14:15:43;22.60;99.90
39067;DHT22;24821;51.988;6.020;2023-05-07T14:18:12;22.70;99.90
39067;DHT22;24821;51.988;6.020;2023-05-07T14:20:38;22.80;99.90
39067;DHT22;24821;51.988;6.020;2023-05-07T14:23:03;22.70;99.90
39067;DHT22;24821;51.988;6.020;2023-05-07T14:25:29;22.80;99.90
39067;DHT22;24821;51.988;6.020;2023-05-07T14:27:55;22.70;99.90
39067;DHT22;24821;51.988;6.020;2023-05-07T14:30:20;22.60;99.90
39067;DHT22;24821;51.988;6.020;2023-05-07T14:32:47;22.40;99.90
39067;DHT22;24821;51.988;6.020;2023-05-07T14:35:13;22.20;99.90
39067;DHT22;24821;51.988;6.020;2023-05-07T14:37:38;22.00;99.90
39067;DHT22;24821;51.988;6.020;2023-05-07T14:40:05;21.90;99.90
39067;DHT22;24821;51.988;6.020;2023-05-07T14:42:30;21.90;99.90
39067;DHT22;24821;51.988;6.020;2023-05-07T14:44:56;21.80;99.90
39067;DHT22;24821;51.988;6.020;2023-05-07T14:47:21;21.80;99.90
39067;DHT22;24821;51.988;6.020;2023-05-07T14:49:47;21.80;99.90
39067;DHT22;24821;51.988;6.020;2023-05-07T14:52:13;21.80;99.90
39067;DHT22;24821;51.988;6.020;2023-05-07T14:54:38;21.80;99.90
39067;DHT22;24821;51.988;6.020;2023-05-07T14:57:05;21.70;99.90
39067;DHT22;24821;51.988;6.020;2023-05-07T14:59:31;21.60;99.90
39067;DHT22;24821;51.988;6.020;2023-05-07T15:01:57;21.50;99.90
39067;DHT22;24821;51.988;6.020;2023-05-07T15:04:24;21.30;99.90
39067;DHT22;24821;51.988;6.020;2023-05-07T15:06:50;21.20;99.90
39067;DHT22;24821;51.988;6.020;2023-05-07T15:09:15;21.20;99.90
39067;DHT22;24821;51.988;6.020;2023-05-07T15:11:41;21.10;99.90
39067;DHT22;24821;51.988;6.020;2023-05-07T15:14:06;21.00;99.90
39067;DHT22;24821;51.988;6.020;2023-05-07T15:16:32;21.00;99.90
39067;DHT22;24821;51.988;6.020;2023-05-07T15:18:59;21.00;99.90
39067;DHT22;24821;51.988;6.020;2023-05-07T15:21:24;21.00;99.90
39067;DHT22;24821;51.988;6.020;2023-05-07T15:23:51;20.90;99.90
39067;DHT22;24821;51.988;6.020;2023-05-07T15:26:17;20.90;99.90
39067;DHT22;24821;51.988;6.020;2023-05-07T15:28:43;20.80;99.90
39067;DHT22;24821;51.988;6.020;2023-05-07T15:31:08;20.80;99.90
39067;DHT22;24821;51.988;6.020;2023-05-07T15:33:34;20.70;99.90
39067;DHT22;24821;51.988;6.020;2023-05-07T15:36:00;20.70;99.90
39067;DHT22;24821;51.988;6.020;2023-05-07T15:38:26;20.60;99.90
39067;DHT22;24821;51.988;6.020;2023-05-07T15:40:52;20.60;99.90